Poetown, Ohio
Current Conditions -  °F | °C
As of 3:53 AM on Friday 28 Nov 2014 (Local Time) from KLUK Reporting Station
Overcast Overcast  
Wind Chill: 22°   Ceiling: 4000
Heat Index: 27°   Visibility: 10mi
Dew Point: 15°   Wind: 5mph
Humidity: 61%   Direction: 320°NW
Pressure: 30.42"   Gusts: NA
Location:  38.9067°N, 83.9997°W
Report Text: KLUK 280853Z AUTO 32004KT 10SM OVC040 M03/M09 A3042 RMK AO2 SLP305 60000 T10281094 56003
Loading
Personal Weather Stations






























Interactive Weather Map New forecast layout! Learn more

10-Day Weather Forecast

Advertisements
Track Severe Weather on mobile